sensor_id;sensor_type;location;lat;lon;timestamp;temperature;humidity
41469;DHT22;27206;47.032;15.484;2022-09-09T00:07:18;14.90;8.20
41469;DHT22;27206;47.032;15.484;2022-09-09T00:15:13;15.30;1.00
41469;DHT22;27206;47.032;15.484;2022-09-09T00:18:07;15.40;1.00
41469;DHT22;27206;47.032;15.484;2022-09-09T00:20:49;15.30;1.00
41469;DHT22;27206;47.032;15.484;2022-09-09T00:23:37;15.20;1.00
41469;DHT22;27206;47.032;15.484;2022-09-09T00:26:11;15.10;1.00
41469;DHT22;27206;47.032;15.484;2022-09-09T00:31:30;14.80;1.00
41469;DHT22;27206;47.032;15.484;2022-09-09T00:34:19;14.70;2.70
41469;DHT22;27206;47.032;15.484;2022-09-09T00:36:49;14.60;7.70
41469;DHT22;27206;47.032;15.484;2022-09-09T00:56:07;14.40;24.10
41469;DHT22;27206;47.032;15.484;2022-09-09T00:58:24;14.40;30.40
41469;DHT22;27206;47.032;15.484;2022-09-09T01:00:55;14.30;32.40
41469;DHT22;27206;47.032;15.484;2022-09-09T01:06:12;14.30;40.50
41469;DHT22;27206;47.032;15.484;2022-09-09T01:09:02;14.20;53.70
41469;DHT22;27206;47.032;15.484;2022-09-09T01:14:38;14.10;57.30
41469;DHT22;27206;47.032;15.484;2022-09-09T01:17:24;14.00;41.30
41469;DHT22;27206;47.032;15.484;2022-09-09T01:20:14;13.90;55.50
41469;DHT22;27206;47.032;15.484;2022-09-09T01:28:25;13.80;66.30
41469;DHT22;27206;47.032;15.484;2022-09-09T01:30:52;13.80;52.70
41469;DHT22;27206;47.032;15.484;2022-09-09T01:33:18;13.80;56.60
41469;DHT22;27206;47.032;15.484;2022-09-09T01:38:34;13.80;53.90
41469;DHT22;27206;47.032;15.484;2022-09-09T01:41:01;13.70;50.80
41469;DHT22;27206;47.032;15.484;2022-09-09T01:43:28;13.60;56.80
41469;DHT22;27206;47.032;15.484;2022-09-09T01:45:56;13.60;48.90
41469;DHT22;27206;47.032;15.484;2022-09-09T01:48:25;13.40;57.50
41469;DHT22;27206;47.032;15.484;2022-09-09T01:50:51;13.50;81.50
41469;DHT22;27206;47.032;15.484;2022-09-09T01:53:18;13.40;73.50
41469;DHT22;27206;47.032;15.484;2022-09-09T02:03:52;13.50;55.30
41469;DHT22;27206;47.032;15.484;2022-09-09T02:08:49;13.60;65.50
41469;DHT22;27206;47.032;15.484;2022-09-09T02:11:17;13.50;67.30
41469;DHT22;27206;47.032;15.484;2022-09-09T02:13:46;13.50;69.20
41469;DHT22;27206;47.032;15.484;2022-09-09T02:21:18;13.50;54.80
41469;DHT22;27206;47.032;15.484;2022-09-09T02:23:46;13.50;59.10
41469;DHT22;27206;47.032;15.484;2022-09-09T02:26:13;13.50;63.20
41469;DHT22;27206;47.032;15.484;2022-09-09T02:28:46;13.40;55.80
41469;DHT22;27206;47.032;15.484;2022-09-09T02:31:13;13.50;57.10
41469;DHT22;27206;47.032;15.484;2022-09-09T02:33:44;13.60;60.50
41469;DHT22;27206;47.032;15.484;2022-09-09T02:36:12;13.60;53.40
41469;DHT22;27206;47.032;15.484;2022-09-09T02:38:46;13.60;46.70
41469;DHT22;27206;47.032;15.484;2022-09-09T02:41:22;13.60;56.90
41469;DHT22;27206;47.032;15.484;2022-09-09T02:43:49;13.70;48.50
41469;DHT22;27206;47.032;15.484;2022-09-09T02:49:00;13.80;66.50
41469;DHT22;27206;47.032;15.484;2022-09-09T02:54:20;13.80;96.80
41469;DHT22;27206;47.032;15.484;2022-09-09T02:56:53;13.80;82.70
41469;DHT22;27206;47.032;15.484;2022-09-09T02:59:21;13.90;71.30
41469;DHT22;27206;47.032;15.484;2022-09-09T03:01:47;13.90;51.00
41469;DHT22;27206;47.032;15.484;2022-09-09T03:04:13;13.90;40.10
41469;DHT22;27206;47.032;15.484;2022-09-09T03:06:39;13.90;50.80
41469;DHT22;27206;47.032;15.484;2022-09-09T03:09:05;13.80;42.80
41469;DHT22;27206;47.032;15.484;2022-09-09T03:11:31;13.90;42.40
41469;DHT22;27206;47.032;15.484;2022-09-09T03:13:57;13.90;43.30
41469;DHT22;27206;47.032;15.484;2022-09-09T03:16:23;13.90;35.50
41469;DHT22;27206;47.032;15.484;2022-09-09T03:18:49;13.90;27.50
41469;DHT22;27206;47.032;15.484;2022-09-09T03:21:15;13.90;32.50
41469;DHT22;27206;47.032;15.484;2022-09-09T03:23:41;14.00;33.10
41469;DHT22;27206;47.032;15.484;2022-09-09T03:26:07;14.00;31.60
41469;DHT22;27206;47.032;15.484;2022-09-09T03:28:33;14.00;21.40
41469;DHT22;27206;47.032;15.484;2022-09-09T03:31:04;14.00;27.30
41469;DHT22;27206;47.032;15.484;2022-09-09T03:33:30;13.90;28.40
41469;DHT22;27206;47.032;15.484;2022-09-09T03:35:57;13.90;18.50
41469;DHT22;27206;47.032;15.484;2022-09-09T03:38:24;13.90;18.40
41469;DHT22;27206;47.032;15.484;2022-09-09T03:40:51;13.90;33.50
41469;DHT22;27206;47.032;15.484;2022-09-09T03:43:18;13.80;36.70
41469;DHT22;27206;47.032;15.484;2022-09-09T03:45:46;13.80;57.50
41469;DHT22;27206;47.032;15.484;2022-09-09T03:48:15;13.80;74.20
41469;DHT22;27206;47.032;15.484;2022-09-09T03:50:59;13.70;84.80
41469;DHT22;27206;47.032;15.484;2022-09-09T03:53:27;13.70;87.20
41469;DHT22;27206;47.032;15.484;2022-09-09T03:55:54;13.70;71.10
41469;DHT22;27206;47.032;15.484;2022-09-09T03:58:22;13.80;48.30
41469;DHT22;27206;47.032;15.484;2022-09-09T04:01:00;13.80;39.50
41469;DHT22;27206;47.032;15.484;2022-09-09T04:03:27;13.80;28.00
41469;DHT22;27206;47.032;15.484;2022-09-09T04:05:54;13.80;13.30
41469;DHT22;27206;47.032;15.484;2022-09-09T04:08:21;13.90;1.00
41469;DHT22;27206;47.032;15.484;2022-09-09T04:10:48;14.00;1.20
41469;DHT22;27206;47.032;15.484;2022-09-09T04:13:15;14.50;1.00
41469;DHT22;27206;47.032;15.484;2022-09-09T04:15:44;14.30;1.00
41469;DHT22;27206;47.032;15.484;2022-09-09T04:18:10;14.80;1.00
41469;DHT22;27206;47.032;15.484;2022-09-09T04:20:37;14.60;1.00
41469;DHT22;27206;47.032;15.484;2022-09-09T04:23:07;14.30;1.00
41469;DHT22;27206;47.032;15.484;2022-09-09T04:25:32;14.20;1.00
41469;DHT22;27206;47.032;15.484;2022-09-09T04:27:59;14.10;1.00
41469;DHT22;27206;47.032;15.484;2022-09-09T04:30:25;13.80;1.00
41469;DHT22;27206;47.032;15.484;2022-09-09T04:32:52;13.60;17.40
41469;DHT22;27206;47.032;15.484;2022-09-09T04:35:18;13.60;41.70
41469;DHT22;27206;47.032;15.484;2022-09-09T04:37:45;13.60;59.10
41469;DHT22;27206;47.032;15.484;2022-09-09T04:40:11;13.80;71.90
41469;DHT22;27206;47.032;15.484;2022-09-09T04:42:39;14.60;1.00
41469;DHT22;27206;47.032;15.484;2022-09-09T04:45:06;15.40;1.00
41469;DHT22;27206;47.032;15.484;2022-09-09T04:47:32;14.90;1.00
41469;DHT22;27206;47.032;15.484;2022-09-09T04:50:00;15.10;1.00
41469;DHT22;27206;47.032;15.484;2022-09-09T04:52:26;15.00;1.00
41469;DHT22;27206;47.032;15.484;2022-09-09T04:54:51;15.30;1.00
41469;DHT22;27206;47.032;15.484;2022-09-09T04:57:19;15.00;1.00
41469;DHT22;27206;47.032;15.484;2022-09-09T04:59:45;14.80;1.00
41469;DHT22;27206;47.032;15.484;2022-09-09T05:02:11;15.20;1.00
41469;DHT22;27206;47.032;15.484;2022-09-09T05:04:37;15.10;1.00
41469;DHT22;27206;47.032;15.484;2022-09-09T05:07:03;15.50;1.00
41469;DHT22;27206;47.032;15.484;2022-09-09T05:09:28;15.10;1.00
41469;DHT22;27206;47.032;15.484;2022-09-09T05:11:54;14.70;1.00
41469;DHT22;27206;47.032;15.484;2022-09-09T05:14:21;14.50;1.00
41469;DHT22;27206;47.032;15.484;2022-09-09T05:16:48;14.30;1.00
41469;DHT22;27206;47.032;15.484;2022-09-09T05:19:15;14.20;1.00
41469;DHT22;27206;47.032;15.484;2022-09-09T05:21:44;14.30;1.00
41469;DHT22;27206;47.032;15.484;2022-09-09T05:24:11;14.20;1.00
41469;DHT22;27206;47.032;15.484;2022-09-09T05:26:36;14.10;4.00
41469;DHT22;27206;47.032;15.484;2022-09-09T05:29:02;14.10;15.50
41469;DHT22;27206;47.032;15.484;2022-09-09T05:31:30;14.00;38.70
41469;DHT22;27206;47.032;15.484;2022-09-09T05:33:56;14.40;37.30
41469;DHT22;27206;47.032;15.484;2022-09-09T05:36:22;15.20;1.00
41469;DHT22;27206;47.032;15.484;2022-09-09T05:38:48;15.40;1.00
41469;DHT22;27206;47.032;15.484;2022-09-09T05:41:16;14.90;1.00
41469;DHT22;27206;47.032;15.484;2022-09-09T05:43:43;15.20;1.00
41469;DHT22;27206;47.032;15.484;2022-09-09T05:46:23;15.50;1.00
41469;DHT22;27206;47.032;15.484;2022-09-09T05:48:51;15.40;1.00
41469;DHT22;27206;47.032;15.484;2022-09-09T05:51:19;15.40;1.00
41469;DHT22;27206;47.032;15.484;2022-09-09T05:53:48;15.40;1.00
41469;DHT22;27206;47.032;15.484;2022-09-09T05:56:19;15.50;1.00
41469;DHT22;27206;47.032;15.484;2022-09-09T05:58:47;15.40;1.00
41469;DHT22;27206;47.032;15.484;2022-09-09T06:01:13;15.10;1.00
41469;DHT22;27206;47.032;15.484;2022-09-09T06:03:41;15.10;1.00
41469;DHT22;27206;47.032;15.484;2022-09-09T06:06:09;15.20;1.00
41469;DHT22;27206;47.032;15.484;2022-09-09T06:08:39;15.20;1.00
41469;DHT22;27206;47.032;15.484;2022-09-09T06:11:11;15.20;1.00
41469;DHT22;27206;47.032;15.484;2022-09-09T06:13:38;15.20;1.00
41469;DHT22;27206;47.032;15.484;2022-09-09T06:16:13;15.20;1.00
41469;DHT22;27206;47.032;15.484;2022-09-09T06:18:39;15.30;1.00
41469;DHT22;27206;47.032;15.484;2022-09-09T06:21:06;15.30;1.00
41469;DHT22;27206;47.032;15.484;2022-09-09T06:23:33;15.60;1.00
41469;DHT22;27206;47.032;15.484;2022-09-09T06:26:17;15.80;1.00
41469;DHT22;27206;47.032;15.484;2022-09-09T06:28:44;15.90;1.00
41469;DHT22;27206;47.032;15.484;2022-09-09T06:31:12;16.00;1.00
41469;DHT22;27206;47.032;15.484;2022-09-09T06:33:39;16.20;1.00
41469;DHT22;27206;47.032;15.484;2022-09-09T06:36:10;16.50;1.00
41469;DHT22;27206;47.032;15.484;2022-09-09T06:38:36;16.70;1.00
41469;DHT22;27206;47.032;15.484;2022-09-09T06:41:02;16.60;1.00
41469;DHT22;27206;47.032;15.484;2022-09-09T06:43:28;16.60;1.00
41469;DHT22;27206;47.032;15.484;2022-09-09T06:46:03;16.60;1.00
41469;DHT22;27206;47.032;15.484;2022-09-09T06:48:29;16.50;1.00
41469;DHT22;27206;47.032;15.484;2022-09-09T06:51:07;16.50;1.00
41469;DHT22;27206;47.032;15.484;2022-09-09T06:53:35;16.60;1.00
41469;DHT22;27206;47.032;15.484;2022-09-09T06:58:37;16.70;1.00
41469;DHT22;27206;47.032;15.484;2022-09-09T07:01:08;16.70;1.00
41469;DHT22;27206;47.032;15.484;2022-09-09T07:03:35;16.60;1.00
41469;DHT22;27206;47.032;15.484;2022-09-09T07:06:01;16.50;1.00
41469;DHT22;27206;47.032;15.484;2022-09-09T07:08:27;16.50;1.00
41469;DHT22;27206;47.032;15.484;2022-09-09T07:10:54;16.60;1.00
41469;DHT22;27206;47.032;15.484;2022-09-09T07:13:26;16.60;1.00
41469;DHT22;27206;47.032;15.484;2022-09-09T07:15:52;16.60;1.00
41469;DHT22;27206;47.032;15.484;2022-09-09T07:18:19;16.50;1.00
41469;DHT22;27206;47.032;15.484;2022-09-09T07:20:54;16.50;1.00
41469;DHT22;27206;47.032;15.484;2022-09-09T07:23:20;16.70;1.00
41469;DHT22;27206;47.032;15.484;2022-09-09T07:25:46;16.50;1.00
41469;DHT22;27206;47.032;15.484;2022-09-09T07:28:13;16.60;1.00
41469;DHT22;27206;47.032;15.484;2022-09-09T07:30:39;16.60;1.00
41469;DHT22;27206;47.032;15.484;2022-09-09T07:33:05;16.60;1.00
41469;DHT22;27206;47.032;15.484;2022-09-09T07:35:31;16.60;1.00
41469;DHT22;27206;47.032;15.484;2022-09-09T07:37:56;16.50;1.00
41469;DHT22;27206;47.032;15.484;2022-09-09T07:40:24;16.50;1.00
41469;DHT22;27206;47.032;15.484;2022-09-09T07:42:50;16.70;1.00
41469;DHT22;27206;47.032;15.484;2022-09-09T07:45:15;16.80;1.00
41469;DHT22;27206;47.032;15.484;2022-09-09T07:47:41;16.70;1.00
41469;DHT22;27206;47.032;15.484;2022-09-09T07:50:09;16.70;1.00
41469;DHT22;27206;47.032;15.484;2022-09-09T07:52:35;16.80;1.00
41469;DHT22;27206;47.032;15.484;2022-09-09T07:55:01;16.80;1.00
41469;DHT22;27206;47.032;15.484;2022-09-09T07:57:28;16.80;1.00
41469;DHT22;27206;47.032;15.484;2022-09-09T07:59:56;16.80;1.00
41469;DHT22;27206;47.032;15.484;2022-09-09T08:02:22;16.90;1.00
41469;DHT22;27206;47.032;15.484;2022-09-09T08:04:48;16.90;1.00
41469;DHT22;27206;47.032;15.484;2022-09-09T08:07:14;16.90;1.00
41469;DHT22;27206;47.032;15.484;2022-09-09T08:09:41;16.80;1.00
41469;DHT22;27206;47.032;15.484;2022-09-09T08:12:07;16.90;1.00
41469;DHT22;27206;47.032;15.484;2022-09-09T08:14:33;17.00;1.00
41469;DHT22;27206;47.032;15.484;2022-09-09T08:16:59;17.10;1.00
41469;DHT22;27206;47.032;15.484;2022-09-09T08:19:25;17.20;1.00
41469;DHT22;27206;47.032;15.484;2022-09-09T08:21:51;17.30;1.00
41469;DHT22;27206;47.032;15.484;2022-09-09T08:24:17;17.30;1.00
41469;DHT22;27206;47.032;15.484;2022-09-09T08:26:47;17.40;1.00
41469;DHT22;27206;47.032;15.484;2022-09-09T08:29:15;17.50;1.00
41469;DHT22;27206;47.032;15.484;2022-09-09T08:31:46;17.60;1.00
41469;DHT22;27206;47.032;15.484;2022-09-09T08:34:12;17.80;1.00
41469;DHT22;27206;47.032;15.484;2022-09-09T08:36:58;17.60;1.00
41469;DHT22;27206;47.032;15.484;2022-09-09T08:39:24;17.50;1.00
41469;DHT22;27206;47.032;15.484;2022-09-09T08:44:42;17.30;1.00
41469;DHT22;27206;47.032;15.484;2022-09-09T08:55:50;17.50;1.00
41469;DHT22;27206;47.032;15.484;2022-09-09T09:09:15;18.30;1.00
41469;DHT22;27206;47.032;15.484;2022-09-09T09:11:48;18.50;1.00
41469;DHT22;27206;47.032;15.484;2022-09-09T09:14:21;18.60;1.00
41469;DHT22;27206;47.032;15.484;2022-09-09T09:17:02;18.90;1.00
41469;DHT22;27206;47.032;15.484;2022-09-09T09:19:30;18.90;1.00
41469;DHT22;27206;47.032;15.484;2022-09-09T09:22:10;19.00;1.00
41469;DHT22;27206;47.032;15.484;2022-09-09T09:24:53;19.10;1.00
41469;DHT22;27206;47.032;15.484;2022-09-09T09:27:30;19.30;1.00
41469;DHT22;27206;47.032;15.484;2022-09-09T09:29:58;19.40;1.00
41469;DHT22;27206;47.032;15.484;2022-09-09T09:32:26;19.80;1.00
41469;DHT22;27206;47.032;15.484;2022-09-09T09:34:56;20.20;1.00
41469;DHT22;27206;47.032;15.484;2022-09-09T09:37:29;20.20;1.00
41469;DHT22;27206;47.032;15.484;2022-09-09T09:39:55;20.30;1.00
41469;DHT22;27206;47.032;15.484;2022-09-09T09:42:21;20.10;1.00
41469;DHT22;27206;47.032;15.484;2022-09-09T09:44:47;20.00;1.00
41469;DHT22;27206;47.032;15.484;2022-09-09T09:47:22;20.00;1.00
41469;DHT22;27206;47.032;15.484;2022-09-09T09:49:59;19.90;1.00
41469;DHT22;27206;47.032;15.484;2022-09-09T09:52:26;19.90;1.00
41469;DHT22;27206;47.032;15.484;2022-09-09T09:54:54;20.60;1.00
41469;DHT22;27206;47.032;15.484;2022-09-09T09:57:29;20.80;1.00
41469;DHT22;27206;47.032;15.484;2022-09-09T10:00:17;20.80;1.00
41469;DHT22;27206;47.032;15.484;2022-09-09T10:02:44;20.80;1.00
41469;DHT22;27206;47.032;15.484;2022-09-09T10:05:19;20.70;1.00
41469;DHT22;27206;47.032;15.484;2022-09-09T10:07:46;21.30;1.00
41469;DHT22;27206;47.032;15.484;2022-09-09T10:10:26;22.00;1.00
41469;DHT22;27206;47.032;15.484;2022-09-09T10:13:04;22.90;1.00
41469;DHT22;27206;47.032;15.484;2022-09-09T10:27:26;22.10;1.00
41469;DHT22;27206;47.032;15.484;2022-09-09T10:35:34;22.20;1.00
41469;DHT22;27206;47.032;15.484;2022-09-09T10:41:02;22.60;1.00
41469;DHT22;27206;47.032;15.484;2022-09-09T10:52:18;21.80;1.00
41469;DHT22;27206;47.032;15.484;2022-09-09T10:59:51;21.60;1.00
41469;DHT22;27206;47.032;15.484;2022-09-09T11:02:27;21.60;1.00
41469;DHT22;27206;47.032;15.484;2022-09-09T11:05:05;21.60;1.00
41469;DHT22;27206;47.032;15.484;2022-09-09T11:07:41;21.60;1.00
41469;DHT22;27206;47.032;15.484;2022-09-09T11:10:23;21.40;1.00
41469;DHT22;27206;47.032;15.484;2022-09-09T11:12:52;21.40;1.00
41469;DHT22;27206;47.032;15.484;2022-09-09T11:15:20;21.50;1.00
41469;DHT22;27206;47.032;15.484;2022-09-09T11:17:52;21.40;1.00
41469;DHT22;27206;47.032;15.484;2022-09-09T11:20:19;21.20;1.00
41469;DHT22;27206;47.032;15.484;2022-09-09T11:22:53;21.30;1.00
41469;DHT22;27206;47.032;15.484;2022-09-09T11:25:31;21.30;1.00
41469;DHT22;27206;47.032;15.484;2022-09-09T11:44:41;21.70;1.00
41469;DHT22;27206;47.032;15.484;2022-09-09T11:47:24;21.60;1.00
41469;DHT22;27206;47.032;15.484;2022-09-09T11:50:41;22.10;1.00
41469;DHT22;27206;47.032;15.484;2022-09-09T11:52:42;22.30;1.00
41469;DHT22;27206;47.032;15.484;2022-09-09T11:55:33;22.10;1.00
41469;DHT22;27206;47.032;15.484;2022-09-09T12:00:40;21.70;1.00
41469;DHT22;27206;47.032;15.484;2022-09-09T12:06:19;21.80;99.90
41469;DHT22;27206;47.032;15.484;2022-09-09T12:09:05;22.00;1.00
41469;DHT22;27206;47.032;15.484;2022-09-09T12:11:31;22.00;1.00
41469;DHT22;27206;47.032;15.484;2022-09-09T12:14:00;22.00;99.90
41469;DHT22;27206;47.032;15.484;2022-09-09T12:16:36;22.10;1.00
41469;DHT22;27206;47.032;15.484;2022-09-09T12:19:18;22.20;1.00
41469;DHT22;27206;47.032;15.484;2022-09-09T12:24:47;22.30;1.00
41469;DHT22;27206;47.032;15.484;2022-09-09T12:27:36;22.10;1.00
41469;DHT22;27206;47.032;15.484;2022-09-09T12:30:12;21.80;1.00
41469;DHT22;27206;47.032;15.484;2022-09-09T12:32:40;21.90;1.00
41469;DHT22;27206;47.032;15.484;2022-09-09T12:37:49;22.30;1.00
41469;DHT22;27206;47.032;15.484;2022-09-09T12:40:29;22.30;1.00
41469;DHT22;27206;47.032;15.484;2022-09-09T12:42:57;22.50;1.00
41469;DHT22;27206;47.032;15.484;2022-09-09T12:45:26;22.30;1.00
41469;DHT22;27206;47.032;15.484;2022-09-09T12:48:07;22.20;1.00
41469;DHT22;27206;47.032;15.484;2022-09-09T12:50:38;21.90;1.00
41469;DHT22;27206;47.032;15.484;2022-09-09T12:53:14;22.10;1.00
41469;DHT22;27206;47.032;15.484;2022-09-09T12:55:48;22.10;1.00
41469;DHT22;27206;47.032;15.484;2022-09-09T12:58:17;21.90;1.00
41469;DHT22;27206;47.032;15.484;2022-09-09T13:00:54;21.80;1.00
41469;DHT22;27206;47.032;15.484;2022-09-09T13:03:23;21.60;1.00
41469;DHT22;27206;47.032;15.484;2022-09-09T13:05:51;21.40;1.00
41469;DHT22;27206;47.032;15.484;2022-09-09T13:08:17;21.60;1.00
41469;DHT22;27206;47.032;15.484;2022-09-09T13:10:54;21.70;1.00
41469;DHT22;27206;47.032;15.484;2022-09-09T13:13:24;21.60;1.00
41469;DHT22;27206;47.032;15.484;2022-09-09T13:15:56;21.40;1.00
41469;DHT22;27206;47.032;15.484;2022-09-09T13:18:24;21.30;1.00
41469;DHT22;27206;47.032;15.484;2022-09-09T13:20:51;21.40;1.00
41469;DHT22;27206;47.032;15.484;2022-09-09T13:23:19;21.50;1.00
41469;DHT22;27206;47.032;15.484;2022-09-09T13:25:57;21.50;1.00
41469;DHT22;27206;47.032;15.484;2022-09-09T13:28:26;21.70;1.00
41469;DHT22;27206;47.032;15.484;2022-09-09T13:31:03;21.90;1.00
41469;DHT22;27206;47.032;15.484;2022-09-09T13:33:39;22.00;1.00
41469;DHT22;27206;47.032;15.484;2022-09-09T13:36:08;22.10;1.00
41469;DHT22;27206;47.032;15.484;2022-09-09T13:38:55;21.90;1.00
41469;DHT22;27206;47.032;15.484;2022-09-09T13:41:24;21.80;1.00
41469;DHT22;27206;47.032;15.484;2022-09-09T13:43:51;21.80;1.00
41469;DHT22;27206;47.032;15.484;2022-09-09T13:46:34;21.80;1.00
41469;DHT22;27206;47.032;15.484;2022-09-09T13:49:22;21.40;1.00
41469;DHT22;27206;47.032;15.484;2022-09-09T13:51:50;21.30;1.00
41469;DHT22;27206;47.032;15.484;2022-09-09T13:54:19;21.20;1.00
41469;DHT22;27206;47.032;15.484;2022-09-09T13:56:46;21.00;1.00
41469;DHT22;27206;47.032;15.484;2022-09-09T13:59:15;20.80;1.00
41469;DHT22;27206;47.032;15.484;2022-09-09T14:01:41;20.70;1.00
41469;DHT22;27206;47.032;15.484;2022-09-09T14:04:08;20.70;1.00
41469;DHT22;27206;47.032;15.484;2022-09-09T14:06:38;20.80;1.00
41469;DHT22;27206;47.032;15.484;2022-09-09T14:09:05;21.00;1.00
41469;DHT22;27206;47.032;15.484;2022-09-09T14:11:31;21.00;1.00
41469;DHT22;27206;47.032;15.484;2022-09-09T14:13:57;20.80;1.00
41469;DHT22;27206;47.032;15.484;2022-09-09T14:16:23;20.70;1.00
41469;DHT22;27206;47.032;15.484;2022-09-09T14:18:48;20.70;1.00
41469;DHT22;27206;47.032;15.484;2022-09-09T14:21:14;20.70;1.00
41469;DHT22;27206;47.032;15.484;2022-09-09T14:23:41;20.60;1.00
41469;DHT22;27206;47.032;15.484;2022-09-09T14:26:07;20.60;1.00
41469;DHT22;27206;47.032;15.484;2022-09-09T14:28:35;20.60;1.00
41469;DHT22;27206;47.032;15.484;2022-09-09T14:31:02;20.60;1.00
41469;DHT22;27206;47.032;15.484;2022-09-09T14:33:29;20.40;1.00
41469;DHT22;27206;47.032;15.484;2022-09-09T14:35:58;20.30;1.00
41469;DHT22;27206;47.032;15.484;2022-09-09T14:38:28;20.30;1.00
41469;DHT22;27206;47.032;15.484;2022-09-09T14:40:53;20.40;1.00
41469;DHT22;27206;47.032;15.484;2022-09-09T14:43:19;20.40;1.00
41469;DHT22;27206;47.032;15.484;2022-09-09T14:45:46;20.40;1.00
41469;DHT22;27206;47.032;15.484;2022-09-09T14:48:14;20.30;1.00
41469;DHT22;27206;47.032;15.484;2022-09-09T14:50:40;20.20;1.00
41469;DHT22;27206;47.032;15.484;2022-09-09T14:53:07;20.30;1.00
41469;DHT22;27206;47.032;15.484;2022-09-09T14:55:34;20.40;1.00
41469;DHT22;27206;47.032;15.484;2022-09-09T14:58:00;20.30;1.00
41469;DHT22;27206;47.032;15.484;2022-09-09T15:00:25;20.30;1.00
41469;DHT22;27206;47.032;15.484;2022-09-09T15:02:54;20.20;1.00
41469;DHT22;27206;47.032;15.484;2022-09-09T15:05:20;20.10;1.00
41469;DHT22;27206;47.032;15.484;2022-09-09T15:07:46;20.30;1.00
41469;DHT22;27206;47.032;15.484;2022-09-09T15:10:13;20.40;1.00
41469;DHT22;27206;47.032;15.484;2022-09-09T15:12:39;20.60;1.00
41469;DHT22;27206;47.032;15.484;2022-09-09T15:15:07;20.60;1.00
41469;DHT22;27206;47.032;15.484;2022-09-09T15:17:34;20.40;1.00
41469;DHT22;27206;47.032;15.484;2022-09-09T15:20:05;20.30;1.00
41469;DHT22;27206;47.032;15.484;2022-09-09T15:22:31;20.40;1.00
41469;DHT22;27206;47.032;15.484;2022-09-09T15:24:57;20.30;1.00
41469;DHT22;27206;47.032;15.484;2022-09-09T15:27:23;20.00;1.00
41469;DHT22;27206;47.032;15.484;2022-09-09T15:29:49;19.90;1.00
41469;DHT22;27206;47.032;15.484;2022-09-09T15:32:16;19.70;1.00
41469;DHT22;27206;47.032;15.484;2022-09-09T15:34:42;19.80;1.00
41469;DHT22;27206;47.032;15.484;2022-09-09T15:37:10;19.70;1.00
41469;DHT22;27206;47.032;15.484;2022-09-09T15:39:39;19.70;1.00
41469;DHT22;27206;47.032;15.484;2022-09-09T15:42:05;19.80;1.00
41469;DHT22;27206;47.032;15.484;2022-09-09T15:44:42;19.70;1.00
41469;DHT22;27206;47.032;15.484;2022-09-09T15:47:10;20.00;1.00
41469;DHT22;27206;47.032;15.484;2022-09-09T15:49:37;20.20;1.00
41469;DHT22;27206;47.032;15.484;2022-09-09T15:52:04;20.20;1.00
41469;DHT22;27206;47.032;15.484;2022-09-09T15:54:36;20.10;1.00
41469;DHT22;27206;47.032;15.484;2022-09-09T15:57:05;20.10;1.00
41469;DHT22;27206;47.032;15.484;2022-09-09T15:59:31;19.80;1.00
41469;DHT22;27206;47.032;15.484;2022-09-09T16:01:58;19.70;1.00
41469;DHT22;27206;47.032;15.484;2022-09-09T16:04:26;19.80;1.00
41469;DHT22;27206;47.032;15.484;2022-09-09T16:06:53;19.60;1.00
41469;DHT22;27206;47.032;15.484;2022-09-09T16:09:20;19.70;1.00
41469;DHT22;27206;47.032;15.484;2022-09-09T16:11:46;19.50;1.00
41469;DHT22;27206;47.032;15.484;2022-09-09T16:14:13;19.70;1.00
41469;DHT22;27206;47.032;15.484;2022-09-09T16:16:41;19.90;1.00
41469;DHT22;27206;47.032;15.484;2022-09-09T16:19:09;19.50;1.00
41469;DHT22;27206;47.032;15.484;2022-09-09T16:21:48;19.20;1.00
41469;DHT22;27206;47.032;15.484;2022-09-09T16:24:16;19.20;1.00
41469;DHT22;27206;47.032;15.484;2022-09-09T16:26:45;19.30;1.00
41469;DHT22;27206;47.032;15.484;2022-09-09T16:29:12;19.30;1.00
41469;DHT22;27206;47.032;15.484;2022-09-09T16:31:38;19.40;1.00
41469;DHT22;27206;47.032;15.484;2022-09-09T16:34:05;19.30;1.00
41469;DHT22;27206;47.032;15.484;2022-09-09T16:36:32;19.40;1.00
41469;DHT22;27206;47.032;15.484;2022-09-09T16:39:05;19.30;1.00
41469;DHT22;27206;47.032;15.484;2022-09-09T16:41:32;19.30;1.00
41469;DHT22;27206;47.032;15.484;2022-09-09T16:44:00;19.10;1.00
41469;DHT22;27206;47.032;15.484;2022-09-09T16:46:28;19.00;1.00
41469;DHT22;27206;47.032;15.484;2022-09-09T16:48:56;18.90;1.00
41469;DHT22;27206;47.032;15.484;2022-09-09T16:51:28;18.90;1.00
41469;DHT22;27206;47.032;15.484;2022-09-09T16:53:55;18.80;1.00
41469;DHT22;27206;47.032;15.484;2022-09-09T16:56:25;18.80;1.00
41469;DHT22;27206;47.032;15.484;2022-09-09T16:58:57;18.70;1.00
41469;DHT22;27206;47.032;15.484;2022-09-09T17:01:28;18.70;1.00
41469;DHT22;27206;47.032;15.484;2022-09-09T17:03:55;18.80;1.00
41469;DHT22;27206;47.032;15.484;2022-09-09T17:06:21;18.80;1.00
41469;DHT22;27206;47.032;15.484;2022-09-09T17:08:47;18.70;1.00
41469;DHT22;27206;47.032;15.484;2022-09-09T17:11:18;18.70;1.00
41469;DHT22;27206;47.032;15.484;2022-09-09T17:13:47;18.80;1.00
41469;DHT22;27206;47.032;15.484;2022-09-09T17:16:15;18.80;1.00
41469;DHT22;27206;47.032;15.484;2022-09-09T17:18:41;18.70;1.00
41469;DHT22;27206;47.032;15.484;2022-09-09T17:21:09;18.60;1.00
41469;DHT22;27206;47.032;15.484;2022-09-09T17:23:37;18.60;1.00
41469;DHT22;27206;47.032;15.484;2022-09-09T17:26:07;18.60;1.00
41469;DHT22;27206;47.032;15.484;2022-09-09T17:28:34;18.50;1.00
41469;DHT22;27206;47.032;15.484;2022-09-09T17:31:01;18.40;1.00
41469;DHT22;27206;47.032;15.484;2022-09-09T17:33:28;18.50;1.00
41469;DHT22;27206;47.032;15.484;2022-09-09T17:36:16;18.50;1.00
41469;DHT22;27206;47.032;15.484;2022-09-09T17:38:42;18.50;1.00
41469;DHT22;27206;47.032;15.484;2022-09-09T17:41:14;18.30;1.00
41469;DHT22;27206;47.032;15.484;2022-09-09T17:43:40;18.30;1.00
41469;DHT22;27206;47.032;15.484;2022-09-09T17:46:08;18.20;1.00
41469;DHT22;27206;47.032;15.484;2022-09-09T17:48:35;18.30;1.00
41469;DHT22;27206;47.032;15.484;2022-09-09T17:51:06;18.30;1.00
41469;DHT22;27206;47.032;15.484;2022-09-09T17:53:43;18.30;1.00
41469;DHT22;27206;47.032;15.484;2022-09-09T17:56:11;18.20;1.00
41469;DHT22;27206;47.032;15.484;2022-09-09T17:58:37;18.30;1.00
41469;DHT22;27206;47.032;15.484;2022-09-09T18:01:21;18.20;1.00
41469;DHT22;27206;47.032;15.484;2022-09-09T18:03:48;18.30;1.00
41469;DHT22;27206;47.032;15.484;2022-09-09T18:06:23;18.50;1.00
41469;DHT22;27206;47.032;15.484;2022-09-09T18:08:54;18.40;1.00
41469;DHT22;27206;47.032;15.484;2022-09-09T18:11:21;18.30;1.00
41469;DHT22;27206;47.032;15.484;2022-09-09T18:13:52;18.30;1.00
41469;DHT22;27206;47.032;15.484;2022-09-09T18:16:19;18.20;1.00